createdAt,value
2022-12-18T00:02:39.336Z,12.95
2022-12-18T00:06:43.236Z,14.57
2022-12-18T00:10:48.126Z,16.20
2022-12-18T00:14:52.228Z,18.88
2022-12-18T00:18:57.383Z,22.87
2022-12-18T00:23:00.187Z,16.65
2022-12-18T00:27:02.988Z,25.05
2022-12-18T00:31:09.330Z,19.20
2022-12-18T00:35:12.179Z,18.60
2022-12-18T00:39:14.988Z,25.33
2022-12-18T00:43:20.782Z,30.08
2022-12-18T00:47:24.930Z,30.90
2022-12-18T00:51:28.289Z,27.48
2022-12-18T00:55:31.167Z,33.93
2022-12-18T00:59:33.974Z,31.48
2022-12-18T01:03:38.409Z,36.30
2022-12-18T01:07:41.792Z,30.13
2022-12-18T01:11:44.589Z,24.47
2022-12-18T01:15:50.910Z,31.03
2022-12-18T01:19:55.092Z,26.23
2022-12-18T01:23:58.970Z,24.57
2022-12-18T01:28:02.649Z,20.70
2022-12-18T01:32:06.042Z,17.65
2022-12-18T01:36:15.967Z,19.77
2022-12-18T01:40:18.899Z,21.30
2022-12-18T01:44:57.488Z,17.57
2022-12-18T01:49:03.183Z,16.37
2022-12-18T01:53:11.866Z,19.80
2022-12-18T01:57:14.810Z,19.70
2022-12-18T02:01:18.706Z,12.43
2022-12-18T02:05:28.830Z,14.63
2022-12-18T02:09:38.924Z,17.03
2022-12-18T02:13:49.104Z,10.13
2022-12-18T02:17:56.905Z,8.52
2022-12-18T02:22:15.238Z,11.85
2022-12-18T02:26:22.642Z,10.93
2022-12-18T02:30:31.073Z,10.77
2022-12-18T02:34:38.692Z,9.48
2022-12-18T02:38:44.453Z,9.20
2022-12-18T02:42:51.723Z,8.90
2022-12-18T02:46:56.520Z,6.68
2022-12-18T02:51:10.224Z,7.40
2022-12-18T02:55:26.081Z,10.52
2022-12-18T02:59:42.491Z,7.78
2022-12-18T03:03:53.020Z,8.65
2022-12-18T03:08:00.332Z,10.27
2022-12-18T03:12:26.486Z,6.38
2022-12-18T03:16:36.477Z,6.57
2022-12-18T03:20:41.734Z,7.53
2022-12-18T03:24:44.727Z,7.53
2022-12-18T03:28:52.837Z,6.57
2022-12-18T03:33:04.556Z,8.95
2022-12-18T03:37:08.492Z,6.43
2022-12-18T03:41:20.605Z,9.13
2022-12-18T03:45:57.542Z,7.55
2022-12-18T03:50:13.412Z,7.40
2022-12-18T03:54:19.932Z,8.18
2022-12-18T03:58:32.146Z,9.55
2022-12-18T04:02:53.223Z,9.48
2022-12-18T04:07:04.585Z,9.05
2022-12-18T04:11:09.890Z,9.93
2022-12-18T04:15:14.705Z,9.90
2022-12-18T04:19:18.735Z,8.98
2022-12-18T04:23:28.084Z,8.70
2022-12-18T04:27:33.928Z,10.63
2022-12-18T04:31:36.912Z,11.95
2022-12-18T04:35:40.379Z,7.15
2022-12-18T04:39:45.063Z,9.82
2022-12-18T04:43:58.150Z,11.27
2022-12-18T04:48:01.601Z,10.95
2022-12-18T04:52:04.455Z,9.10
2022-12-18T04:56:11.281Z,12.75
2022-12-18T05:00:15.255Z,11.30
2022-12-18T05:04:18.113Z,9.95
2022-12-18T05:08:21.071Z,11.27
2022-12-18T05:12:25.320Z,10.30
2022-12-18T05:16:28.210Z,8.05
2022-12-18T05:20:31.282Z,8.75
2022-12-18T05:24:34.091Z,12.13
2022-12-18T05:28:38.507Z,7.93
2022-12-18T05:32:41.692Z,9.13
2022-12-18T05:36:44.637Z,9.25
2022-12-18T05:40:48.880Z,11.65
2022-12-18T05:44:53.174Z,10.55
2022-12-18T05:48:56.082Z,10.05
2022-12-18T05:52:58.899Z,13.95
2022-12-18T05:57:01.742Z,11.10
2022-12-18T06:01:12.498Z,12.65
2022-12-18T06:05:15.516Z,11.18
2022-12-18T06:09:18.376Z,10.23
2022-12-18T06:13:21.915Z,11.48
2022-12-18T06:17:29.813Z,11.73
2022-12-18T06:21:33.839Z,11.15
2022-12-18T06:25:40.496Z,11.65
2022-12-18T06:29:43.392Z,11.90
2022-12-18T06:33:47.528Z,8.20
2022-12-18T06:37:50.413Z,8.80
2022-12-18T06:41:53.528Z,6.30
2022-12-18T06:46:01.127Z,10.57
2022-12-18T06:50:06.471Z,9.65
2022-12-18T06:54:09.716Z,7.78
2022-12-18T06:58:12.547Z,8.32
2022-12-18T07:02:15.501Z,9.93
2022-12-18T07:06:21.343Z,8.52
2022-12-18T07:10:24.159Z,8.68
2022-12-18T07:14:26.975Z,9.50
2022-12-18T07:18:29.837Z,8.90
2022-12-18T07:22:34.070Z,8.77
2022-12-18T07:26:36.934Z,8.50
2022-12-18T07:30:40.137Z,10.80
2022-12-18T07:34:43.091Z,8.88
2022-12-18T07:38:49.231Z,9.05
2022-12-18T07:42:52.027Z,10.80
2022-12-18T07:46:54.884Z,10.60
2022-12-18T07:51:00.722Z,10.70
2022-12-18T07:55:05.536Z,11.57
2022-12-18T07:59:10.368Z,12.15
2022-12-18T08:03:14.697Z,11.88
2022-12-18T08:07:17.675Z,11.88
2022-12-18T08:11:22.438Z,12.02
2022-12-18T08:15:25.311Z,15.25
2022-12-18T08:19:28.211Z,11.32
2022-12-18T08:23:31.072Z,10.48
2022-12-18T08:27:35.359Z,9.57
2022-12-18T08:31:38.298Z,9.77
2022-12-18T08:35:45.612Z,9.50
2022-12-18T08:39:48.958Z,11.23
2022-12-18T08:44:10.654Z,9.50
2022-12-18T08:48:19.187Z,7.85
2022-12-18T08:52:24.833Z,9.98
2022-12-18T08:56:27.840Z,8.55
2022-12-18T09:00:34.982Z,8.48
2022-12-18T09:04:37.807Z,9.18
2022-12-18T09:08:41.109Z,10.75
2022-12-18T09:12:44.285Z,12.82
2022-12-18T09:16:48.637Z,8.00
2022-12-18T09:20:53.530Z,10.45
2022-12-18T09:24:56.340Z,8.93
2022-12-18T09:28:59.203Z,9.15
2022-12-18T09:33:03.483Z,7.28
2022-12-18T09:37:06.681Z,7.88
2022-12-18T09:41:25.530Z,11.77
2022-12-18T09:45:29.502Z,8.63
2022-12-18T09:49:39.169Z,9.48
2022-12-18T09:53:45.126Z,10.90
2022-12-18T09:57:53.090Z,7.80
2022-12-18T10:01:56.078Z,9.00
2022-12-18T10:06:06.528Z,7.80
2022-12-18T10:10:21.003Z,7.13
2022-12-18T10:14:32.662Z,8.38
2022-12-18T10:18:56.025Z,7.35
2022-12-18T10:23:10.037Z,7.72
2022-12-18T10:27:17.690Z,6.18
2022-12-18T10:31:22.486Z,7.30
2022-12-18T10:35:29.092Z,7.35
2022-12-18T10:39:33.695Z,8.43
2022-12-18T10:43:38.109Z,7.43
2022-12-18T10:47:45.345Z,11.27
2022-12-18T10:51:48.255Z,10.38
2022-12-18T10:55:54.885Z,8.32
2022-12-18T10:59:59.711Z,10.55
2022-12-18T11:04:09.448Z,10.43
2022-12-18T11:08:23.652Z,7.75
2022-12-18T11:12:30.612Z,6.80
2022-12-18T11:16:38.269Z,7.28
2022-12-18T11:20:42.675Z,8.10
2022-12-18T11:25:29.600Z,9.27
2022-12-18T11:29:24.863Z,8.38
2022-12-18T11:33:28.017Z,9.40
2022-12-18T11:37:31.693Z,8.38
2022-12-18T11:42:01.085Z,8.07
2022-12-18T11:46:10.750Z,7.80
2022-12-18T11:50:20.526Z,7.10
2022-12-18T11:54:23.436Z,7.05
2022-12-18T11:58:35.598Z,6.07
2022-12-18T12:02:56.743Z,6.28
2022-12-18T12:07:07.355Z,5.30
2022-12-18T12:11:19.331Z,8.65
2022-12-18T12:15:33.863Z,6.90
2022-12-18T12:19:47.853Z,4.60
2022-12-18T12:23:56.062Z,6.25
2022-12-18T12:28:11.555Z,8.73
2022-12-18T12:32:27.141Z,6.57
2022-12-18T12:36:41.919Z,6.00
2022-12-18T12:40:55.288Z,6.72
2022-12-18T12:45:07.553Z,6.45
2022-12-18T12:49:16.485Z,6.43
2022-12-18T12:53:27.415Z,7.28
2022-12-18T12:57:36.370Z,5.38
2022-12-18T13:01:49.211Z,5.20
2022-12-18T13:05:57.517Z,5.40
2022-12-18T13:10:25.646Z,7.53
2022-12-18T13:14:33.001Z,5.75
2022-12-18T13:18:36.492Z,8.75
2022-12-18T13:22:43.333Z,6.05
2022-12-18T13:26:47.738Z,6.13
2022-12-18T13:30:57.190Z,5.22
2022-12-18T13:35:56.824Z,5.00
2022-12-18T13:39:59.930Z,7.07
2022-12-18T13:44:22.210Z,6.85
2022-12-18T13:48:27.656Z,7.97
2022-12-18T13:52:37.366Z,6.70
2022-12-18T13:56:46.669Z,6.15
2022-12-18T14:00:51.266Z,5.72
2022-12-18T14:04:55.705Z,6.40
2022-12-18T14:09:00.868Z,8.00
2022-12-18T14:13:08.644Z,6.47
2022-12-18T14:17:14.855Z,5.80
2022-12-18T14:21:23.543Z,7.78
2022-12-18T14:25:27.686Z,6.15
2022-12-18T14:29:32.307Z,8.63
2022-12-18T14:33:40.257Z,6.35
2022-12-18T14:37:43.524Z,7.13
2022-12-18T14:41:47.413Z,6.38
2022-12-18T14:45:51.361Z,7.18
2022-12-18T14:49:56.569Z,7.97
2022-12-18T14:54:01.341Z,8.07
2022-12-18T14:58:04.272Z,7.65
2022-12-18T15:02:17.514Z,9.88
2022-12-18T15:06:32.475Z,9.13
2022-12-18T15:10:36.717Z,8.85
2022-12-18T15:14:42.551Z,8.50
2022-12-18T15:18:48.827Z,8.63
2022-12-18T15:22:53.634Z,7.55
2022-12-18T15:26:56.988Z,7.43
2022-12-18T15:31:05.923Z,10.32
2022-12-18T15:35:16.360Z,9.35
2022-12-18T15:39:20.509Z,8.15
2022-12-18T15:43:37.496Z,10.38
2022-12-18T15:47:40.615Z,9.05
2022-12-18T15:51:43.730Z,8.43
2022-12-18T15:56:06.921Z,11.02
2022-12-18T16:00:14.490Z,10.18
2022-12-18T16:04:20.968Z,12.55
2022-12-18T16:08:24.027Z,13.02
2022-12-18T16:12:28.321Z,13.35
2022-12-18T16:16:31.265Z,13.52
2022-12-18T16:20:34.521Z,14.15
2022-12-18T16:24:38.489Z,13.38
2022-12-18T16:28:48.223Z,14.82
2022-12-18T16:32:52.095Z,18.20
2022-12-18T16:36:58.920Z,15.25
2022-12-18T16:41:33.870Z,14.73
2022-12-18T16:45:38.188Z,17.92
2022-12-18T16:49:41.104Z,16.33
2022-12-18T16:53:44.708Z,14.30
2022-12-18T16:57:47.927Z,19.45
2022-12-18T17:01:52.451Z,17.95
2022-12-18T17:05:55.450Z,18.60
2022-12-18T17:09:58.438Z,17.48
2022-12-18T17:14:06.676Z,19.35
2022-12-18T17:18:11.304Z,18.50
2022-12-18T17:22:15.376Z,19.10
2022-12-18T17:26:18.297Z,20.58
2022-12-18T17:30:21.178Z,19.42
2022-12-18T17:34:25.457Z,24.50
2022-12-18T17:38:28.373Z,21.27
2022-12-18T17:42:31.236Z,18.75
2022-12-18T17:46:35.222Z,22.00
2022-12-18T17:50:39.455Z,20.35
2022-12-18T17:54:43.857Z,21.58
2022-12-18T17:58:47.932Z,22.10
2022-12-18T18:02:50.911Z,19.48
2022-12-18T18:06:55.177Z,22.30
2022-12-18T18:11:18.977Z,21.05
2022-12-18T18:15:56.172Z,21.90
2022-12-18T18:20:06.056Z,24.80
2022-12-18T18:24:12.610Z,23.58
2022-12-18T18:28:15.480Z,26.92
2022-12-18T18:32:18.467Z,22.50
2022-12-18T18:36:22.030Z,25.33
2022-12-18T18:40:28.142Z,26.45
2022-12-18T18:44:31.694Z,25.27
2022-12-18T18:48:37.113Z,25.85
2022-12-18T18:52:40.605Z,29.45
2022-12-18T18:57:18.804Z,29.67
2022-12-18T19:01:15.162Z,24.92
2022-12-18T19:05:18.181Z,24.73
2022-12-18T19:09:21.057Z,26.20
2022-12-18T19:13:35.506Z,28.38
2022-12-18T19:17:38.583Z,26.50
2022-12-18T19:21:43.187Z,29.75
2022-12-18T19:25:46.115Z,30.27
2022-12-18T19:29:51.522Z,26.30
2022-12-18T19:33:54.509Z,25.90
2022-12-18T19:37:57.478Z,27.60
2022-12-18T19:42:00.383Z,25.58
2022-12-18T19:46:04.841Z,27.02
2022-12-18T19:50:09.249Z,25.55
2022-12-18T19:54:16.387Z,25.23
2022-12-18T19:58:20.168Z,30.48
2022-12-18T20:02:27.284Z,25.98
2022-12-18T20:06:32.453Z,31.98
2022-12-18T20:10:35.318Z,32.97
2022-12-18T20:14:38.276Z,36.10
2022-12-18T20:18:42.900Z,28.83
2022-12-18T20:22:46.339Z,28.02
2022-12-18T20:26:49.174Z,27.90
2022-12-18T20:30:52.707Z,27.92
2022-12-18T20:34:57.012Z,28.50
2022-12-18T20:39:01.593Z,31.35
2022-12-18T20:43:07.088Z,28.58
2022-12-18T20:47:09.944Z,30.98
2022-12-18T20:51:15.648Z,93.22
2022-12-18T20:55:19.727Z,28.63
2022-12-18T20:59:23.158Z,30.38
2022-12-18T21:03:26.247Z,28.05
2022-12-18T21:07:30.577Z,28.20
2022-12-18T21:11:51.854Z,27.73
2022-12-18T21:15:54.957Z,34.10
2022-12-18T21:19:58.041Z,34.15
2022-12-18T21:24:02.577Z,30.27
2022-12-18T21:28:05.622Z,32.78
2022-12-18T21:32:09.186Z,30.80
2022-12-18T21:36:12.453Z,29.67
2022-12-18T21:40:17.103Z,32.40
2022-12-18T21:44:20.519Z,31.23
2022-12-18T21:48:26.023Z,29.92
2022-12-18T21:52:32.507Z,31.27
2022-12-18T21:56:46.964Z,29.33
2022-12-18T22:00:51.369Z,29.88
2022-12-18T22:04:56.470Z,29.27
2022-12-18T22:08:59.595Z,28.55
2022-12-18T22:13:03.813Z,28.60
2022-12-18T22:17:06.663Z,29.08
2022-12-18T22:21:28.761Z,26.48
2022-12-18T22:25:32.095Z,26.70
2022-12-18T22:29:53.653Z,28.42
2022-12-18T22:33:56.458Z,29.73
2022-12-18T22:37:59.876Z,29.42
2022-12-18T22:42:02.787Z,28.90
2022-12-18T22:46:07.268Z,29.30
2022-12-18T22:50:12.900Z,28.58
2022-12-18T22:54:16.334Z,28.63
2022-12-18T22:58:19.152Z,29.88
2022-12-18T23:02:23.663Z,30.77
2022-12-18T23:06:29.032Z,28.67
2022-12-18T23:10:31.879Z,29.85
2022-12-18T23:14:34.778Z,28.42
2022-12-18T23:18:38.987Z,27.92
2022-12-18T23:22:41.810Z,28.13
2022-12-18T23:26:44.618Z,27.85
2022-12-18T23:30:47.439Z,26.35
2022-12-18T23:34:51.705Z,29.25
2022-12-18T23:38:55.899Z,25.45
2022-12-18T23:43:00.222Z,25.60
2022-12-18T23:47:03.072Z,25.50
2022-12-18T23:51:08.586Z,25.00
2022-12-18T23:55:11.389Z,27.42
2022-12-18T23:59:14.350Z,29.17
